sensor_id;sensor_type;location;lat;lon;timestamp;P1;durP1;ratioP1;P2;durP2;ratioP2
9459;SDS011;4768;42.664;23.240;2023-07-02T00:01:46;5.63;;;3.87;;
9459;SDS011;4768;42.664;23.240;2023-07-02T00:04:14;6.57;;;3.43;;
9459;SDS011;4768;42.664;23.240;2023-07-02T00:06:44;6.73;;;3.63;;
9459;SDS011;4768;42.664;23.240;2023-07-02T00:09:12;5.67;;;4.17;;
9459;SDS011;4768;42.664;23.240;2023-07-02T00:11:40;5.77;;;3.70;;
9459;SDS011;4768;42.664;23.240;2023-07-02T00:14:08;5.33;;;3.60;;
9459;SDS011;4768;42.664;23.240;2023-07-02T00:16:37;9.90;;;3.57;;
9459;SDS011;4768;42.664;23.240;2023-07-02T00:19:06;4.40;;;3.33;;
9459;SDS011;4768;42.664;23.240;2023-07-02T00:21:33;7.10;;;4.10;;
9459;SDS011;4768;42.664;23.240;2023-07-02T00:24:02;7.53;;;3.70;;
9459;SDS011;4768;42.664;23.240;2023-07-02T00:26:29;5.93;;;3.93;;
9459;SDS011;4768;42.664;23.240;2023-07-02T00:28:56;5.27;;;3.70;;
9459;SDS011;4768;42.664;23.240;2023-07-02T00:31:23;8.17;;;4.27;;
9459;SDS011;4768;42.664;23.240;2023-07-02T00:33:50;5.60;;;3.37;;
9459;SDS011;4768;42.664;23.240;2023-07-02T00:36:18;7.47;;;4.13;;
9459;SDS011;4768;42.664;23.240;2023-07-02T00:38:45;6.67;;;3.67;;
9459;SDS011;4768;42.664;23.240;2023-07-02T00:41:13;8.30;;;3.93;;
9459;SDS011;4768;42.664;23.240;2023-07-02T00:43:40;5.30;;;3.80;;
9459;SDS011;4768;42.664;23.240;2023-07-02T00:46:10;7.10;;;4.40;;
9459;SDS011;4768;42.664;23.240;2023-07-02T00:48:39;5.87;;;3.50;;
9459;SDS011;4768;42.664;23.240;2023-07-02T00:51:07;6.47;;;3.70;;
9459;SDS011;4768;42.664;23.240;2023-07-02T00:53:36;8.13;;;4.30;;
9459;SDS011;4768;42.664;23.240;2023-07-02T00:56:03;8.73;;;3.77;;
9459;SDS011;4768;42.664;23.240;2023-07-02T00:58:31;10.33;;;4.30;;
9459;SDS011;4768;42.664;23.240;2023-07-02T01:00:58;8.20;;;4.50;;
9459;SDS011;4768;42.664;23.240;2023-07-02T01:03:26;8.30;;;4.30;;
9459;SDS011;4768;42.664;23.240;2023-07-02T01:05:54;5.63;;;4.00;;
9459;SDS011;4768;42.664;23.240;2023-07-02T01:08:21;6.50;;;4.00;;
9459;SDS011;4768;42.664;23.240;2023-07-02T01:10:49;6.80;;;4.07;;
9459;SDS011;4768;42.664;23.240;2023-07-02T01:13:16;12.70;;;4.13;;
9459;SDS011;4768;42.664;23.240;2023-07-02T01:15:47;7.03;;;4.27;;
9459;SDS011;4768;42.664;23.240;2023-07-02T01:18:15;6.77;;;4.20;;
9459;SDS011;4768;42.664;23.240;2023-07-02T01:20:44;7.17;;;4.70;;
9459;SDS011;4768;42.664;23.240;2023-07-02T01:23:12;7.53;;;4.60;;
9459;SDS011;4768;42.664;23.240;2023-07-02T01:25:39;8.50;;;4.53;;
9459;SDS011;4768;42.664;23.240;2023-07-02T01:28:05;7.83;;;4.67;;
9459;SDS011;4768;42.664;23.240;2023-07-02T01:30:32;6.27;;;4.40;;
9459;SDS011;4768;42.664;23.240;2023-07-02T01:33:00;6.07;;;4.37;;
9459;SDS011;4768;42.664;23.240;2023-07-02T01:35:26;7.27;;;4.23;;
9459;SDS011;4768;42.664;23.240;2023-07-02T01:37:54;7.20;;;4.03;;
9459;SDS011;4768;42.664;23.240;2023-07-02T01:40:22;5.37;;;3.50;;
9459;SDS011;4768;42.664;23.240;2023-07-02T01:42:48;7.13;;;4.57;;
9459;SDS011;4768;42.664;23.240;2023-07-02T01:45:15;8.20;;;3.97;;
9459;SDS011;4768;42.664;23.240;2023-07-02T01:47:42;7.63;;;4.30;;
9459;SDS011;4768;42.664;23.240;2023-07-02T01:50:09;6.87;;;4.40;;
9459;SDS011;4768;42.664;23.240;2023-07-02T01:52:36;8.87;;;5.20;;
9459;SDS011;4768;42.664;23.240;2023-07-02T01:55:04;7.77;;;4.63;;
9459;SDS011;4768;42.664;23.240;2023-07-02T01:57:31;7.80;;;4.30;;
9459;SDS011;4768;42.664;23.240;2023-07-02T01:59:58;8.83;;;5.30;;
9459;SDS011;4768;42.664;23.240;2023-07-02T02:02:25;7.73;;;4.90;;
9459;SDS011;4768;42.664;23.240;2023-07-02T02:04:52;11.43;;;5.17;;
9459;SDS011;4768;42.664;23.240;2023-07-02T02:07:18;9.20;;;5.10;;
9459;SDS011;4768;42.664;23.240;2023-07-02T02:09:45;7.30;;;4.43;;
9459;SDS011;4768;42.664;23.240;2023-07-02T02:12:13;6.87;;;4.67;;
9459;SDS011;4768;42.664;23.240;2023-07-02T02:14:40;6.10;;;4.43;;
9459;SDS011;4768;42.664;23.240;2023-07-02T02:17:07;6.93;;;4.90;;
9459;SDS011;4768;42.664;23.240;2023-07-02T02:19:34;6.43;;;4.60;;
9459;SDS011;4768;42.664;23.240;2023-07-02T02:22:00;6.67;;;4.63;;
9459;SDS011;4768;42.664;23.240;2023-07-02T02:24:28;7.07;;;5.37;;
9459;SDS011;4768;42.664;23.240;2023-07-02T02:26:55;7.00;;;4.40;;
9459;SDS011;4768;42.664;23.240;2023-07-02T02:29:23;9.20;;;5.27;;
9459;SDS011;4768;42.664;23.240;2023-07-02T02:31:49;7.80;;;4.87;;
9459;SDS011;4768;42.664;23.240;2023-07-02T02:34:16;6.83;;;4.47;;
9459;SDS011;4768;42.664;23.240;2023-07-02T02:36:43;7.27;;;5.03;;
9459;SDS011;4768;42.664;23.240;2023-07-02T02:39:10;8.57;;;5.03;;
9459;SDS011;4768;42.664;23.240;2023-07-02T02:41:36;9.27;;;4.97;;
9459;SDS011;4768;42.664;23.240;2023-07-02T02:44:03;12.83;;;5.73;;
9459;SDS011;4768;42.664;23.240;2023-07-02T02:46:31;10.70;;;5.40;;
9459;SDS011;4768;42.664;23.240;2023-07-02T02:48:58;8.53;;;5.50;;
9459;SDS011;4768;42.664;23.240;2023-07-02T02:51:25;11.13;;;5.93;;
9459;SDS011;4768;42.664;23.240;2023-07-02T02:53:52;9.67;;;5.97;;
9459;SDS011;4768;42.664;23.240;2023-07-02T02:56:18;7.90;;;5.40;;
9459;SDS011;4768;42.664;23.240;2023-07-02T02:58:45;8.57;;;6.03;;
9459;SDS011;4768;42.664;23.240;2023-07-02T03:01:12;7.10;;;5.40;;
9459;SDS011;4768;42.664;23.240;2023-07-02T03:03:41;8.10;;;4.93;;
9459;SDS011;4768;42.664;23.240;2023-07-02T03:06:10;8.03;;;5.33;;
9459;SDS011;4768;42.664;23.240;2023-07-02T03:08:39;10.90;;;5.40;;
9459;SDS011;4768;42.664;23.240;2023-07-02T03:11:06;8.70;;;4.77;;
9459;SDS011;4768;42.664;23.240;2023-07-02T03:13:32;10.60;;;6.23;;
9459;SDS011;4768;42.664;23.240;2023-07-02T03:15:59;9.97;;;6.17;;
9459;SDS011;4768;42.664;23.240;2023-07-02T03:18:26;10.67;;;5.43;;
9459;SDS011;4768;42.664;23.240;2023-07-02T03:20:54;9.77;;;5.97;;
9459;SDS011;4768;42.664;23.240;2023-07-02T03:23:21;8.00;;;5.37;;
9459;SDS011;4768;42.664;23.240;2023-07-02T03:25:47;12.93;;;5.70;;
9459;SDS011;4768;42.664;23.240;2023-07-02T03:28:14;10.87;;;5.80;;
9459;SDS011;4768;42.664;23.240;2023-07-02T03:30:41;11.50;;;5.50;;
9459;SDS011;4768;42.664;23.240;2023-07-02T03:33:08;8.13;;;5.33;;
9459;SDS011;4768;42.664;23.240;2023-07-02T03:35:35;9.37;;;5.70;;
9459;SDS011;4768;42.664;23.240;2023-07-02T03:38:03;9.37;;;5.23;;
9459;SDS011;4768;42.664;23.240;2023-07-02T03:40:30;8.40;;;5.90;;
9459;SDS011;4768;42.664;23.240;2023-07-02T03:42:57;6.87;;;5.10;;
9459;SDS011;4768;42.664;23.240;2023-07-02T03:45:24;9.20;;;5.60;;
9459;SDS011;4768;42.664;23.240;2023-07-02T03:47:50;7.73;;;5.17;;
9459;SDS011;4768;42.664;23.240;2023-07-02T03:50:17;9.57;;;5.83;;
9459;SDS011;4768;42.664;23.240;2023-07-02T03:52:44;7.43;;;5.20;;
9459;SDS011;4768;42.664;23.240;2023-07-02T03:55:13;7.27;;;5.30;;
9459;SDS011;4768;42.664;23.240;2023-07-02T03:57:39;8.37;;;5.67;;
9459;SDS011;4768;42.664;23.240;2023-07-02T04:00:06;9.33;;;6.13;;
9459;SDS011;4768;42.664;23.240;2023-07-02T04:02:36;8.03;;;5.73;;
9459;SDS011;4768;42.664;23.240;2023-07-02T04:05:03;8.67;;;5.83;;
9459;SDS011;4768;42.664;23.240;2023-07-02T04:07:31;7.70;;;5.40;;
9459;SDS011;4768;42.664;23.240;2023-07-02T04:09:57;7.93;;;5.50;;
9459;SDS011;4768;42.664;23.240;2023-07-02T04:12:25;7.40;;;5.47;;
9459;SDS011;4768;42.664;23.240;2023-07-02T04:14:52;6.50;;;4.77;;
9459;SDS011;4768;42.664;23.240;2023-07-02T04:17:19;8.10;;;4.90;;
9459;SDS011;4768;42.664;23.240;2023-07-02T04:19:46;8.63;;;4.70;;
9459;SDS011;4768;42.664;23.240;2023-07-02T04:22:14;9.73;;;4.73;;
9459;SDS011;4768;42.664;23.240;2023-07-02T04:24:41;7.53;;;4.83;;
9459;SDS011;4768;42.664;23.240;2023-07-02T04:27:07;6.47;;;4.90;;
9459;SDS011;4768;42.664;23.240;2023-07-02T04:29:35;6.70;;;4.80;;
9459;SDS011;4768;42.664;23.240;2023-07-02T04:32:02;5.73;;;4.23;;
9459;SDS011;4768;42.664;23.240;2023-07-02T04:34:29;8.87;;;5.23;;
9459;SDS011;4768;42.664;23.240;2023-07-02T04:36:56;8.27;;;4.87;;
9459;SDS011;4768;42.664;23.240;2023-07-02T04:39:23;8.00;;;5.20;;
9459;SDS011;4768;42.664;23.240;2023-07-02T04:41:49;9.07;;;4.77;;
9459;SDS011;4768;42.664;23.240;2023-07-02T04:44:17;7.00;;;4.97;;
9459;SDS011;4768;42.664;23.240;2023-07-02T04:46:57;7.20;;;4.47;;
9459;SDS011;4768;42.664;23.240;2023-07-02T04:49:24;6.77;;;4.53;;
9459;SDS011;4768;42.664;23.240;2023-07-02T04:51:51;6.73;;;4.60;;
9459;SDS011;4768;42.664;23.240;2023-07-02T04:54:18;10.80;;;5.10;;
9459;SDS011;4768;42.664;23.240;2023-07-02T04:56:45;7.47;;;4.80;;
9459;SDS011;4768;42.664;23.240;2023-07-02T04:59:12;6.73;;;4.70;;
9459;SDS011;4768;42.664;23.240;2023-07-02T05:01:39;10.00;;;4.57;;
9459;SDS011;4768;42.664;23.240;2023-07-02T05:04:09;8.37;;;5.27;;
9459;SDS011;4768;42.664;23.240;2023-07-02T05:06:36;7.60;;;5.20;;
9459;SDS011;4768;42.664;23.240;2023-07-02T05:09:04;8.23;;;5.20;;
9459;SDS011;4768;42.664;23.240;2023-07-02T05:11:30;7.27;;;4.80;;
9459;SDS011;4768;42.664;23.240;2023-07-02T05:13:57;8.63;;;5.00;;
9459;SDS011;4768;42.664;23.240;2023-07-02T05:16:24;9.20;;;4.97;;
9459;SDS011;4768;42.664;23.240;2023-07-02T05:18:51;10.93;;;4.83;;
9459;SDS011;4768;42.664;23.240;2023-07-02T05:21:19;9.10;;;4.73;;
9459;SDS011;4768;42.664;23.240;2023-07-02T05:23:46;8.40;;;4.63;;
9459;SDS011;4768;42.664;23.240;2023-07-02T05:26:13;7.90;;;4.83;;
9459;SDS011;4768;42.664;23.240;2023-07-02T05:28:40;9.07;;;5.37;;
9459;SDS011;4768;42.664;23.240;2023-07-02T05:31:06;10.77;;;5.27;;
9459;SDS011;4768;42.664;23.240;2023-07-02T05:33:33;9.43;;;5.47;;
9459;SDS011;4768;42.664;23.240;2023-07-02T05:36:00;10.57;;;5.60;;
9459;SDS011;4768;42.664;23.240;2023-07-02T05:38:28;9.53;;;5.63;;
9459;SDS011;4768;42.664;23.240;2023-07-02T05:40:55;11.20;;;5.23;;
9459;SDS011;4768;42.664;23.240;2023-07-02T05:43:22;11.53;;;5.17;;
9459;SDS011;4768;42.664;23.240;2023-07-02T05:45:50;9.43;;;4.87;;
9459;SDS011;4768;42.664;23.240;2023-07-02T05:48:18;9.27;;;5.17;;
9459;SDS011;4768;42.664;23.240;2023-07-02T05:50:45;7.90;;;4.53;;
9459;SDS011;4768;42.664;23.240;2023-07-02T05:53:11;8.23;;;5.27;;
9459;SDS011;4768;42.664;23.240;2023-07-02T05:55:39;10.60;;;5.73;;
9459;SDS011;4768;42.664;23.240;2023-07-02T05:58:06;9.23;;;6.23;;
9459;SDS011;4768;42.664;23.240;2023-07-02T06:00:33;8.83;;;5.60;;
9459;SDS011;4768;42.664;23.240;2023-07-02T06:03:00;8.10;;;5.57;;
9459;SDS011;4768;42.664;23.240;2023-07-02T06:05:26;8.83;;;5.13;;
9459;SDS011;4768;42.664;23.240;2023-07-02T06:07:53;8.20;;;4.97;;
9459;SDS011;4768;42.664;23.240;2023-07-02T06:10:20;8.87;;;5.50;;
9459;SDS011;4768;42.664;23.240;2023-07-02T06:12:48;7.63;;;5.43;;
9459;SDS011;4768;42.664;23.240;2023-07-02T06:15:15;10.07;;;6.00;;
9459;SDS011;4768;42.664;23.240;2023-07-02T06:17:41;8.40;;;5.20;;
9459;SDS011;4768;42.664;23.240;2023-07-02T06:20:08;9.03;;;5.40;;
9459;SDS011;4768;42.664;23.240;2023-07-02T06:22:36;8.33;;;5.23;;
9459;SDS011;4768;42.664;23.240;2023-07-02T06:25:03;8.87;;;5.27;;
9459;SDS011;4768;42.664;23.240;2023-07-02T06:27:30;8.93;;;5.27;;
9459;SDS011;4768;42.664;23.240;2023-07-02T06:29:58;7.23;;;4.60;;
9459;SDS011;4768;42.664;23.240;2023-07-02T06:32:25;5.87;;;4.67;;
9459;SDS011;4768;42.664;23.240;2023-07-02T06:34:51;6.47;;;4.37;;
9459;SDS011;4768;42.664;23.240;2023-07-02T06:37:18;5.87;;;4.00;;
9459;SDS011;4768;42.664;23.240;2023-07-02T06:39:45;7.07;;;4.40;;
9459;SDS011;4768;42.664;23.240;2023-07-02T06:42:12;8.53;;;4.17;;
9459;SDS011;4768;42.664;23.240;2023-07-02T06:44:38;7.20;;;3.50;;
9459;SDS011;4768;42.664;23.240;2023-07-02T06:47:07;4.57;;;3.33;;
9459;SDS011;4768;42.664;23.240;2023-07-02T06:49:34;4.40;;;3.53;;
9459;SDS011;4768;42.664;23.240;2023-07-02T06:52:01;4.83;;;3.43;;
9459;SDS011;4768;42.664;23.240;2023-07-02T06:54:27;5.27;;;3.00;;
9459;SDS011;4768;42.664;23.240;2023-07-02T06:56:54;5.13;;;2.90;;
9459;SDS011;4768;42.664;23.240;2023-07-02T06:59:21;4.70;;;2.50;;
9459;SDS011;4768;42.664;23.240;2023-07-02T07:01:48;3.57;;;2.27;;
9459;SDS011;4768;42.664;23.240;2023-07-02T07:04:16;2.93;;;2.23;;
9459;SDS011;4768;42.664;23.240;2023-07-02T07:06:43;6.13;;;3.60;;
9459;SDS011;4768;42.664;23.240;2023-07-02T07:09:10;5.07;;;3.80;;
9459;SDS011;4768;42.664;23.240;2023-07-02T07:11:37;8.77;;;4.00;;
9459;SDS011;4768;42.664;23.240;2023-07-02T07:14:03;6.77;;;4.23;;
9459;SDS011;4768;42.664;23.240;2023-07-02T07:16:30;7.17;;;4.67;;
9459;SDS011;4768;42.664;23.240;2023-07-02T07:18:57;10.07;;;5.33;;
9459;SDS011;4768;42.664;23.240;2023-07-02T07:21:25;9.30;;;5.23;;
9459;SDS011;4768;42.664;23.240;2023-07-02T07:23:52;7.97;;;5.03;;
9459;SDS011;4768;42.664;23.240;2023-07-02T07:26:18;7.73;;;4.93;;
9459;SDS011;4768;42.664;23.240;2023-07-02T07:28:45;8.27;;;4.80;;
9459;SDS011;4768;42.664;23.240;2023-07-02T07:31:12;5.87;;;4.17;;
9459;SDS011;4768;42.664;23.240;2023-07-02T07:33:38;8.47;;;5.03;;
9459;SDS011;4768;42.664;23.240;2023-07-02T07:36:05;9.30;;;4.83;;
9459;SDS011;4768;42.664;23.240;2023-07-02T07:38:33;7.00;;;4.67;;
9459;SDS011;4768;42.664;23.240;2023-07-02T07:41:00;12.43;;;5.77;;
9459;SDS011;4768;42.664;23.240;2023-07-02T07:43:27;9.37;;;5.10;;
9459;SDS011;4768;42.664;23.240;2023-07-02T07:45:53;5.97;;;4.32;;
9459;SDS011;4768;42.664;23.240;2023-07-02T07:48:21;8.37;;;5.57;;
9459;SDS011;4768;42.664;23.240;2023-07-02T07:50:48;7.40;;;4.97;;
9459;SDS011;4768;42.664;23.240;2023-07-02T07:53:14;11.43;;;5.10;;
9459;SDS011;4768;42.664;23.240;2023-07-02T07:55:42;7.75;;;5.05;;
9459;SDS011;4768;42.664;23.240;2023-07-02T07:58:09;10.13;;;5.47;;
9459;SDS011;4768;42.664;23.240;2023-07-02T08:00:36;8.63;;;5.28;;
9459;SDS011;4768;42.664;23.240;2023-07-02T08:03:02;8.82;;;5.20;;
9459;SDS011;4768;42.664;23.240;2023-07-02T08:05:29;8.20;;;5.70;;
9459;SDS011;4768;42.664;23.240;2023-07-02T08:07:56;11.60;;;5.47;;
9459;SDS011;4768;42.664;23.240;2023-07-02T08:10:23;7.05;;;4.82;;
9459;SDS011;4768;42.664;23.240;2023-07-02T08:12:51;7.90;;;5.25;;
9459;SDS011;4768;42.664;23.240;2023-07-02T08:15:18;10.48;;;5.55;;
9459;SDS011;4768;42.664;23.240;2023-07-02T08:17:45;6.38;;;4.53;;
9459;SDS011;4768;42.664;23.240;2023-07-02T08:20:11;8.43;;;5.18;;
9459;SDS011;4768;42.664;23.240;2023-07-02T08:22:38;8.02;;;5.35;;
9459;SDS011;4768;42.664;23.240;2023-07-02T08:25:06;7.95;;;5.25;;
9459;SDS011;4768;42.664;23.240;2023-07-02T08:27:34;7.25;;;4.82;;
9459;SDS011;4768;42.664;23.240;2023-07-02T08:30:03;6.50;;;3.95;;
9459;SDS011;4768;42.664;23.240;2023-07-02T08:32:30;4.65;;;4.00;;
9459;SDS011;4768;42.664;23.240;2023-07-02T08:34:57;7.32;;;4.55;;
9459;SDS011;4768;42.664;23.240;2023-07-02T08:37:24;5.47;;;4.10;;
9459;SDS011;4768;42.664;23.240;2023-07-02T08:39:51;5.40;;;4.05;;
9459;SDS011;4768;42.664;23.240;2023-07-02T08:42:17;7.05;;;3.80;;
9459;SDS011;4768;42.664;23.240;2023-07-02T08:44:45;6.53;;;4.22;;
9459;SDS011;4768;42.664;23.240;2023-07-02T08:47:14;7.10;;;4.82;;
9459;SDS011;4768;42.664;23.240;2023-07-02T08:49:41;5.25;;;3.92;;
9459;SDS011;4768;42.664;23.240;2023-07-02T08:52:08;6.65;;;4.30;;
9459;SDS011;4768;42.664;23.240;2023-07-02T08:54:35;6.65;;;4.00;;
9459;SDS011;4768;42.664;23.240;2023-07-02T08:57:01;7.28;;;4.30;;
9459;SDS011;4768;42.664;23.240;2023-07-02T08:59:30;5.35;;;4.15;;
9459;SDS011;4768;42.664;23.240;2023-07-02T09:01:57;6.43;;;4.60;;
9459;SDS011;4768;42.664;23.240;2023-07-02T09:04:25;5.97;;;3.95;;
9459;SDS011;4768;42.664;23.240;2023-07-02T09:07:02;4.88;;;3.90;;
9459;SDS011;4768;42.664;23.240;2023-07-02T09:09:30;5.35;;;3.92;;
9459;SDS011;4768;42.664;23.240;2023-07-02T09:11:57;5.05;;;3.58;;
9459;SDS011;4768;42.664;23.240;2023-07-02T09:14:24;5.32;;;3.78;;
9459;SDS011;4768;42.664;23.240;2023-07-02T09:17:01;3.92;;;2.97;;
9459;SDS011;4768;42.664;23.240;2023-07-02T09:19:31;5.38;;;3.92;;
9459;SDS011;4768;42.664;23.240;2023-07-02T09:21:58;5.78;;;4.13;;
9459;SDS011;4768;42.664;23.240;2023-07-02T09:24:26;7.00;;;4.38;;
9459;SDS011;4768;42.664;23.240;2023-07-02T09:26:54;6.70;;;4.47;;
9459;SDS011;4768;42.664;23.240;2023-07-02T09:29:22;5.57;;;3.95;;
9459;SDS011;4768;42.664;23.240;2023-07-02T09:31:50;5.70;;;4.13;;
9459;SDS011;4768;42.664;23.240;2023-07-02T09:34:17;4.97;;;3.85;;
9459;SDS011;4768;42.664;23.240;2023-07-02T09:36:45;4.53;;;3.60;;
9459;SDS011;4768;42.664;23.240;2023-07-02T09:39:18;3.75;;;2.65;;
9459;SDS011;4768;42.664;23.240;2023-07-02T09:41:47;2.15;;;1.80;;
9459;SDS011;4768;42.664;23.240;2023-07-02T09:44:16;2.20;;;1.58;;
9459;SDS011;4768;42.664;23.240;2023-07-02T09:46:45;1.90;;;1.65;;
9459;SDS011;4768;42.664;23.240;2023-07-02T09:49:16;1.95;;;1.70;;
9459;SDS011;4768;42.664;23.240;2023-07-02T09:51:48;2.47;;;1.55;;
9459;SDS011;4768;42.664;23.240;2023-07-02T09:54:16;2.70;;;1.85;;
9459;SDS011;4768;42.664;23.240;2023-07-02T09:56:45;2.10;;;1.67;;
9459;SDS011;4768;42.664;23.240;2023-07-02T09:59:12;2.50;;;1.80;;
9459;SDS011;4768;42.664;23.240;2023-07-02T10:01:39;1.83;;;1.52;;
9459;SDS011;4768;42.664;23.240;2023-07-02T10:04:12;1.50;;;1.30;;
9459;SDS011;4768;42.664;23.240;2023-07-02T10:06:46;2.08;;;1.70;;
9459;SDS011;4768;42.664;23.240;2023-07-02T10:09:16;1.90;;;1.73;;
9459;SDS011;4768;42.664;23.240;2023-07-02T10:11:43;2.15;;;1.80;;
9459;SDS011;4768;42.664;23.240;2023-07-02T10:14:10;2.53;;;2.00;;
9459;SDS011;4768;42.664;23.240;2023-07-02T10:16:50;3.15;;;1.90;;
9459;SDS011;4768;42.664;23.240;2023-07-02T10:19:18;2.65;;;1.80;;
9459;SDS011;4768;42.664;23.240;2023-07-02T10:21:45;2.28;;;1.58;;
9459;SDS011;4768;42.664;23.240;2023-07-02T10:24:16;2.80;;;2.17;;
9459;SDS011;4768;42.664;23.240;2023-07-02T10:26:53;3.92;;;2.28;;
9459;SDS011;4768;42.664;23.240;2023-07-02T10:29:22;3.72;;;2.58;;
9459;SDS011;4768;42.664;23.240;2023-07-02T10:31:50;3.45;;;2.70;;
9459;SDS011;4768;42.664;23.240;2023-07-02T10:34:27;3.63;;;2.83;;
9459;SDS011;4768;42.664;23.240;2023-07-02T10:36:57;4.20;;;3.08;;
9459;SDS011;4768;42.664;23.240;2023-07-02T10:39:27;5.35;;;3.78;;
9459;SDS011;4768;42.664;23.240;2023-07-02T10:42:03;3.95;;;2.90;;
9459;SDS011;4768;42.664;23.240;2023-07-02T10:44:30;3.33;;;2.78;;
9459;SDS011;4768;42.664;23.240;2023-07-02T10:46:57;3.67;;;2.78;;
9459;SDS011;4768;42.664;23.240;2023-07-02T10:49:29;3.50;;;2.72;;
9459;SDS011;4768;42.664;23.240;2023-07-02T10:51:57;4.57;;;3.08;;
9459;SDS011;4768;42.664;23.240;2023-07-02T10:54:24;4.60;;;3.17;;
9459;SDS011;4768;42.664;23.240;2023-07-02T10:56:57;4.20;;;2.90;;
9459;SDS011;4768;42.664;23.240;2023-07-02T10:59:24;3.97;;;2.97;;
9459;SDS011;4768;42.664;23.240;2023-07-02T11:01:51;3.58;;;2.90;;
9459;SDS011;4768;42.664;23.240;2023-07-02T11:04:17;3.22;;;2.85;;
9459;SDS011;4768;42.664;23.240;2023-07-02T11:06:44;4.13;;;3.20;;
9459;SDS011;4768;42.664;23.240;2023-07-02T11:09:17;4.32;;;3.10;;
9459;SDS011;4768;42.664;23.240;2023-07-02T11:11:51;4.30;;;3.17;;
9459;SDS011;4768;42.664;23.240;2023-07-02T11:14:27;4.70;;;3.22;;
9459;SDS011;4768;42.664;23.240;2023-07-02T11:16:54;3.50;;;2.95;;
9459;SDS011;4768;42.664;23.240;2023-07-02T11:19:21;3.67;;;2.95;;
9459;SDS011;4768;42.664;23.240;2023-07-02T11:21:52;4.50;;;3.20;;
9459;SDS011;4768;42.664;23.240;2023-07-02T11:24:27;3.72;;;2.83;;
9459;SDS011;4768;42.664;23.240;2023-07-02T11:26:56;5.43;;;2.85;;
9459;SDS011;4768;42.664;23.240;2023-07-02T11:29:23;3.17;;;2.50;;
9459;SDS011;4768;42.664;23.240;2023-07-02T11:31:51;3.97;;;3.00;;
9459;SDS011;4768;42.664;23.240;2023-07-02T11:34:19;3.70;;;2.80;;
9459;SDS011;4768;42.664;23.240;2023-07-02T11:36:47;3.55;;;2.55;;
9459;SDS011;4768;42.664;23.240;2023-07-02T11:39:15;5.43;;;2.63;;
9459;SDS011;4768;42.664;23.240;2023-07-02T11:41:43;3.03;;;2.33;;
9459;SDS011;4768;42.664;23.240;2023-07-02T11:44:11;2.33;;;1.90;;
9459;SDS011;4768;42.664;23.240;2023-07-02T11:46:38;3.08;;;2.22;;
9459;SDS011;4768;42.664;23.240;2023-07-02T11:49:06;2.42;;;1.92;;
9459;SDS011;4768;42.664;23.240;2023-07-02T11:51:34;2.03;;;1.67;;
9459;SDS011;4768;42.664;23.240;2023-07-02T11:54:01;2.58;;;1.70;;
9459;SDS011;4768;42.664;23.240;2023-07-02T11:56:28;2.60;;;2.30;;
9459;SDS011;4768;42.664;23.240;2023-07-02T11:58:55;2.55;;;1.80;;
9459;SDS011;4768;42.664;23.240;2023-07-02T12:01:22;3.38;;;2.13;;
9459;SDS011;4768;42.664;23.240;2023-07-02T12:03:48;2.97;;;2.30;;
9459;SDS011;4768;42.664;23.240;2023-07-02T12:06:17;3.65;;;2.35;;
9459;SDS011;4768;42.664;23.240;2023-07-02T12:08:43;3.95;;;2.47;;
9459;SDS011;4768;42.664;23.240;2023-07-02T12:11:10;2.90;;;2.60;;
9459;SDS011;4768;42.664;23.240;2023-07-02T12:13:37;5.10;;;3.40;;
9459;SDS011;4768;42.664;23.240;2023-07-02T12:16:04;4.10;;;3.13;;
9459;SDS011;4768;42.664;23.240;2023-07-02T12:18:30;3.78;;;2.95;;
9459;SDS011;4768;42.664;23.240;2023-07-02T12:20:57;4.47;;;3.37;;
9459;SDS011;4768;42.664;23.240;2023-07-02T12:23:25;5.13;;;3.53;;
9459;SDS011;4768;42.664;23.240;2023-07-02T12:25:52;5.67;;;3.50;;
9459;SDS011;4768;42.664;23.240;2023-07-02T12:28:19;4.80;;;3.60;;
9459;SDS011;4768;42.664;23.240;2023-07-02T12:30:46;4.53;;;3.13;;
9459;SDS011;4768;42.664;23.240;2023-07-02T12:33:13;7.20;;;4.00;;
9459;SDS011;4768;42.664;23.240;2023-07-02T12:35:39;4.60;;;3.43;;
9459;SDS011;4768;42.664;23.240;2023-07-02T12:38:06;5.17;;;3.30;;
9459;SDS011;4768;42.664;23.240;2023-07-02T12:40:35;4.78;;;3.10;;
9459;SDS011;4768;42.664;23.240;2023-07-02T12:43:01;5.70;;;3.50;;
9459;SDS011;4768;42.664;23.240;2023-07-02T12:45:28;6.05;;;3.80;;
9459;SDS011;4768;42.664;23.240;2023-07-02T12:47:56;5.90;;;3.42;;
9459;SDS011;4768;42.664;23.240;2023-07-02T12:50:23;8.48;;;3.75;;
9459;SDS011;4768;42.664;23.240;2023-07-02T12:52:50;4.85;;;3.55;;
9459;SDS011;4768;42.664;23.240;2023-07-02T12:55:16;3.90;;;2.80;;
9459;SDS011;4768;42.664;23.240;2023-07-02T12:57:45;4.82;;;3.30;;
9459;SDS011;4768;42.664;23.240;2023-07-02T13:00:12;4.60;;;3.00;;
9459;SDS011;4768;42.664;23.240;2023-07-02T13:02:39;7.35;;;3.33;;
9459;SDS011;4768;42.664;23.240;2023-07-02T13:05:06;4.75;;;3.10;;
9459;SDS011;4768;42.664;23.240;2023-07-02T13:07:33;4.20;;;3.15;;
9459;SDS011;4768;42.664;23.240;2023-07-02T13:09:59;3.78;;;3.20;;
9459;SDS011;4768;42.664;23.240;2023-07-02T13:12:26;4.47;;;3.22;;
9459;SDS011;4768;42.664;23.240;2023-07-02T13:14:54;4.22;;;3.28;;
9459;SDS011;4768;42.664;23.240;2023-07-02T13:17:21;3.90;;;3.15;;
9459;SDS011;4768;42.664;23.240;2023-07-02T13:19:47;6.32;;;3.65;;
9459;SDS011;4768;42.664;23.240;2023-07-02T13:22:15;4.40;;;3.33;;
9459;SDS011;4768;42.664;23.240;2023-07-02T13:24:41;10.02;;;6.03;;
9459;SDS011;4768;42.664;23.240;2023-07-02T13:27:11;4.25;;;3.45;;
9459;SDS011;4768;42.664;23.240;2023-07-02T13:29:40;4.35;;;3.17;;
9459;SDS011;4768;42.664;23.240;2023-07-02T13:32:08;7.45;;;5.05;;
9459;SDS011;4768;42.664;23.240;2023-07-02T13:34:36;5.03;;;3.40;;
9459;SDS011;4768;42.664;23.240;2023-07-02T13:37:03;3.90;;;3.25;;
9459;SDS011;4768;42.664;23.240;2023-07-02T13:39:30;5.70;;;3.38;;
9459;SDS011;4768;42.664;23.240;2023-07-02T13:41:57;4.78;;;3.33;;
9459;SDS011;4768;42.664;23.240;2023-07-02T13:44:23;4.78;;;3.03;;
9459;SDS011;4768;42.664;23.240;2023-07-02T13:46:50;4.70;;;3.58;;
9459;SDS011;4768;42.664;23.240;2023-07-02T13:49:19;6.40;;;3.58;;
9459;SDS011;4768;42.664;23.240;2023-07-02T13:51:46;4.78;;;3.53;;
9459;SDS011;4768;42.664;23.240;2023-07-02T13:54:14;6.45;;;3.53;;
9459;SDS011;4768;42.664;23.240;2023-07-02T13:56:41;4.80;;;3.67;;
9459;SDS011;4768;42.664;23.240;2023-07-02T13:59:09;6.00;;;3.72;;
9459;SDS011;4768;42.664;23.240;2023-07-02T14:01:36;5.18;;;3.85;;
9459;SDS011;4768;42.664;23.240;2023-07-02T14:04:03;5.05;;;3.92;;
9459;SDS011;4768;42.664;23.240;2023-07-02T14:06:30;4.95;;;3.88;;
9459;SDS011;4768;42.664;23.240;2023-07-02T14:08:57;5.40;;;4.25;;
9459;SDS011;4768;42.664;23.240;2023-07-02T14:11:25;7.43;;;4.50;;
9459;SDS011;4768;42.664;23.240;2023-07-02T14:13:52;7.23;;;5.53;;
9459;SDS011;4768;42.664;23.240;2023-07-02T14:16:21;8.67;;;5.40;;
9459;SDS011;4768;42.664;23.240;2023-07-02T14:18:49;7.33;;;5.33;;
9459;SDS011;4768;42.664;23.240;2023-07-02T14:21:15;6.37;;;4.87;;
9459;SDS011;4768;42.664;23.240;2023-07-02T14:23:42;5.93;;;4.67;;
9459;SDS011;4768;42.664;23.240;2023-07-02T14:26:09;7.27;;;5.00;;
9459;SDS011;4768;42.664;23.240;2023-07-02T14:28:37;5.87;;;4.93;;
9459;SDS011;4768;42.664;23.240;2023-07-02T14:31:04;7.77;;;4.80;;
9459;SDS011;4768;42.664;23.240;2023-07-02T14:33:33;7.17;;;4.60;;
9459;SDS011;4768;42.664;23.240;2023-07-02T14:36:02;6.57;;;4.40;;
9459;SDS011;4768;42.664;23.240;2023-07-02T14:38:29;7.70;;;4.50;;
9459;SDS011;4768;42.664;23.240;2023-07-02T14:40:56;6.10;;;4.53;;
9459;SDS011;4768;42.664;23.240;2023-07-02T14:43:24;6.93;;;4.80;;
9459;SDS011;4768;42.664;23.240;2023-07-02T14:45:53;7.07;;;4.70;;
9459;SDS011;4768;42.664;23.240;2023-07-02T14:48:21;5.60;;;4.03;;
9459;SDS011;4768;42.664;23.240;2023-07-02T14:50:51;8.10;;;4.77;;
9459;SDS011;4768;42.664;23.240;2023-07-02T14:53:19;9.57;;;4.53;;
9459;SDS011;4768;42.664;23.240;2023-07-02T14:55:47;6.30;;;4.27;;
9459;SDS011;4768;42.664;23.240;2023-07-02T14:58:14;7.73;;;4.70;;
9459;SDS011;4768;42.664;23.240;2023-07-02T15:00:43;6.70;;;4.43;;
9459;SDS011;4768;42.664;23.240;2023-07-02T15:03:10;8.63;;;4.47;;